createdAt,value
2023-01-09T00:01:16.539Z,4.73
2023-01-09T00:03:48.658Z,7.30
2023-01-09T00:06:19.745Z,5.93
2023-01-09T00:08:51.166Z,6.40
2023-01-09T00:11:23.411Z,5.45
2023-01-09T00:13:59.447Z,6.18
2023-01-09T00:16:32.821Z,6.45
2023-01-09T00:19:04.991Z,5.60
2023-01-09T00:21:37.081Z,5.72
2023-01-09T00:24:12.290Z,5.70
2023-01-09T00:26:44.651Z,6.13
2023-01-09T00:29:20.988Z,6.18
2023-01-09T00:31:54.127Z,6.22
2023-01-09T00:34:27.981Z,6.50
2023-01-09T00:37:00.163Z,6.82
2023-01-09T00:39:32.887Z,6.50
2023-01-09T00:42:05.814Z,6.47
2023-01-09T00:44:45.683Z,6.95
2023-01-09T00:47:22.114Z,6.50
2023-01-09T00:49:56.610Z,6.82
2023-01-09T00:52:29.065Z,5.37
2023-01-09T00:55:03.652Z,6.63
2023-01-09T00:57:36.828Z,7.22
2023-01-09T01:00:14.795Z,6.72
2023-01-09T01:02:47.213Z,6.72
2023-01-09T01:05:31.808Z,7.38
2023-01-09T01:08:03.912Z,6.28
2023-01-09T01:10:35.725Z,7.05
2023-01-09T01:13:08.168Z,6.80
2023-01-09T01:15:43.321Z,5.93
2023-01-09T01:18:18.302Z,6.57
2023-01-09T01:20:50.292Z,6.18
2023-01-09T01:23:22.989Z,6.25
2023-01-09T01:25:55.503Z,6.55
2023-01-09T01:28:28.397Z,5.95
2023-01-09T01:31:04.062Z,6.03
2023-01-09T01:33:37.248Z,6.63
2023-01-09T01:36:12.139Z,5.95
2023-01-09T01:38:45.673Z,6.13
2023-01-09T01:41:30.072Z,5.57
2023-01-09T01:44:04.998Z,5.97
2023-01-09T01:46:39.955Z,6.13
2023-01-09T01:49:21.158Z,5.90
2023-01-09T01:51:58.117Z,6.47
2023-01-09T01:54:34.204Z,6.03
2023-01-09T01:57:09.681Z,5.57
2023-01-09T01:59:46.013Z,5.82
2023-01-09T02:02:24.095Z,6.57
2023-01-09T02:04:59.515Z,6.03
2023-01-09T02:07:33.662Z,6.60
2023-01-09T02:10:06.046Z,6.07
2023-01-09T02:12:38.874Z,6.22
2023-01-09T02:15:15.426Z,6.20
2023-01-09T02:18:18.279Z,6.63
2023-01-09T02:20:59.826Z,5.95
2023-01-09T02:23:53.921Z,7.15
2023-01-09T02:26:48.296Z,6.88
2023-01-09T02:29:52.840Z,5.95
2023-01-09T02:32:39.435Z,6.05
2023-01-09T02:35:32.316Z,5.80
2023-01-09T02:38:12.652Z,6.38
2023-01-09T02:40:51.665Z,6.28
2023-01-09T02:43:24.792Z,6.30
2023-01-09T02:45:58.135Z,6.22
2023-01-09T02:48:33.655Z,6.07
2023-01-09T02:51:17.088Z,5.90
2023-01-09T02:54:22.272Z,6.63
2023-01-09T02:57:33.071Z,6.50
2023-01-09T03:00:15.275Z,6.78
2023-01-09T03:02:54.768Z,6.10
2023-01-09T03:05:34.865Z,6.70
2023-01-09T03:08:12.242Z,6.03
2023-01-09T03:10:50.733Z,6.32
2023-01-09T03:13:26.570Z,6.18
2023-01-09T03:15:59.267Z,5.57
2023-01-09T03:18:35.649Z,6.47
2023-01-09T03:21:12.237Z,7.00
2023-01-09T03:23:51.871Z,6.95
2023-01-09T03:26:24.230Z,6.53
2023-01-09T03:28:56.530Z,6.97
2023-01-09T03:31:27.915Z,6.15
2023-01-09T03:33:59.347Z,6.10
2023-01-09T03:36:33.070Z,6.05
2023-01-09T03:39:05.565Z,5.93
2023-01-09T03:41:36.897Z,5.97
2023-01-09T03:44:09.347Z,5.68
2023-01-09T03:46:42.198Z,6.63
2023-01-09T03:49:14.166Z,5.57
2023-01-09T03:51:47.927Z,5.75
2023-01-09T03:54:20.480Z,5.78
2023-01-09T03:56:52.376Z,5.90
2023-01-09T03:59:26.007Z,5.65
2023-01-09T04:01:57.619Z,5.75
2023-01-09T04:04:29.945Z,5.95
2023-01-09T04:07:04.578Z,5.60
2023-01-09T04:09:36.612Z,6.35
2023-01-09T04:12:09.532Z,5.55
2023-01-09T04:14:41.240Z,5.65
2023-01-09T04:17:12.566Z,5.60
2023-01-09T04:19:43.699Z,5.65
2023-01-09T04:22:17.546Z,5.97
2023-01-09T04:24:49.608Z,5.85
2023-01-09T04:27:21.064Z,6.10
2023-01-09T04:29:53.248Z,6.53
2023-01-09T04:32:24.897Z,6.53
2023-01-09T04:34:56.969Z,6.88
2023-01-09T04:37:34.021Z,6.75
2023-01-09T04:40:08.918Z,6.72
2023-01-09T04:42:41.409Z,7.65
2023-01-09T04:45:16.324Z,6.80
2023-01-09T04:47:49.648Z,7.50
2023-01-09T04:50:22.274Z,7.97
2023-01-09T04:52:57.388Z,7.60
2023-01-09T04:55:30.822Z,7.15
2023-01-09T04:58:02.698Z,7.53
2023-01-09T05:00:35.548Z,10.40
2023-01-09T05:03:08.744Z,10.98
2023-01-09T05:05:41.388Z,13.18
2023-01-09T05:08:15.494Z,13.68
2023-01-09T05:10:47.692Z,15.47
2023-01-09T05:13:20.726Z,16.27
2023-01-09T05:15:53.083Z,14.32
2023-01-09T05:18:25.081Z,14.50
2023-01-09T05:20:56.953Z,13.23
2023-01-09T05:23:32.384Z,12.45
2023-01-09T05:26:05.006Z,15.95
2023-01-09T05:28:36.740Z,15.63
2023-01-09T05:31:08.353Z,16.58
2023-01-09T05:33:42.071Z,15.10
2023-01-09T05:36:16.621Z,14.27
2023-01-09T05:38:53.675Z,13.27
2023-01-09T05:41:28.247Z,12.90
2023-01-09T05:44:01.838Z,13.88
2023-01-09T05:46:34.416Z,20.85
2023-01-09T05:49:06.607Z,15.52
2023-01-09T05:51:40.393Z,13.07
2023-01-09T05:54:17.681Z,12.70
2023-01-09T05:56:49.464Z,13.10
2023-01-09T05:59:24.355Z,13.40
2023-01-09T06:01:58.086Z,16.55
2023-01-09T06:04:30.572Z,20.17
2023-01-09T06:07:03.572Z,21.17
2023-01-09T06:09:40.920Z,20.25
2023-01-09T06:12:16.824Z,20.17
2023-01-09T06:14:52.799Z,39.75
2023-01-09T06:17:29.830Z,48.10
2023-01-09T06:20:00.672Z,50.65
2023-01-09T06:22:31.325Z,45.13
2023-01-09T06:25:04.711Z,43.45
2023-01-09T06:27:35.336Z,40.40
2023-01-09T06:30:05.984Z,41.45
2023-01-09T06:32:36.628Z,37.30
2023-01-09T06:35:07.860Z,29.13
2023-01-09T06:37:38.449Z,30.92
2023-01-09T06:40:13.410Z,15.82
2023-01-09T06:42:47.024Z,18.00
2023-01-09T06:45:17.718Z,25.58
2023-01-09T06:47:50.262Z,18.00
2023-01-09T06:50:21.402Z,14.45
2023-01-09T06:52:52.038Z,10.18
2023-01-09T06:55:26.572Z,10.13
2023-01-09T06:57:57.528Z,9.07
2023-01-09T07:00:28.403Z,7.80
2023-01-09T07:02:58.941Z,6.57
2023-01-09T07:05:29.870Z,5.82
2023-01-09T07:08:00.516Z,6.35
2023-01-09T07:10:33.777Z,6.20
2023-01-09T07:13:04.293Z,6.53
2023-01-09T07:15:34.699Z,6.53
2023-01-09T07:18:05.383Z,6.55
2023-01-09T07:20:35.948Z,6.53
2023-01-09T07:23:06.681Z,6.57
2023-01-09T07:25:39.959Z,7.03
2023-01-09T07:28:10.591Z,6.93
2023-01-09T07:30:41.304Z,7.25
2023-01-09T07:33:12.001Z,7.28
2023-01-09T07:35:42.636Z,7.63
2023-01-09T07:38:13.102Z,7.10
2023-01-09T07:40:46.501Z,8.55
2023-01-09T07:43:17.096Z,7.13
2023-01-09T07:45:49.473Z,7.72
2023-01-09T07:48:19.989Z,7.75
2023-01-09T07:50:51.096Z,8.05
2023-01-09T07:53:21.859Z,11.45
2023-01-09T07:55:55.203Z,9.32
2023-01-09T07:58:25.733Z,11.18
2023-01-09T08:00:56.367Z,9.30
2023-01-09T08:03:27.377Z,7.85
2023-01-09T08:05:57.993Z,7.95
2023-01-09T08:08:28.537Z,9.20
2023-01-09T08:11:01.811Z,8.15
2023-01-09T08:13:32.344Z,8.40
2023-01-09T08:16:03.107Z,9.77
2023-01-09T08:18:33.623Z,7.53
2023-01-09T08:21:04.347Z,8.40
2023-01-09T08:23:34.922Z,8.88
2023-01-09T08:26:08.318Z,8.50
2023-01-09T08:28:38.838Z,8.25
2023-01-09T08:31:09.943Z,7.50
2023-01-09T08:33:40.701Z,7.57
2023-01-09T08:36:12.466Z,7.85
2023-01-09T08:38:43.059Z,8.50
2023-01-09T08:41:28.483Z,7.43
2023-01-09T08:44:11.302Z,8.13
2023-01-09T08:46:54.416Z,9.38
2023-01-09T08:49:25.008Z,8.13
2023-01-09T08:51:56.801Z,8.57
2023-01-09T08:54:27.311Z,8.65
2023-01-09T08:57:00.541Z,9.38
2023-01-09T08:59:31.294Z,8.40
2023-01-09T09:02:01.907Z,9.10
2023-01-09T09:04:32.637Z,8.00
2023-01-09T09:07:03.211Z,8.10
2023-01-09T09:09:33.793Z,7.50
2023-01-09T09:12:07.408Z,7.75
2023-01-09T09:14:50.168Z,7.97
2023-01-09T09:17:20.688Z,13.40
2023-01-09T09:19:51.360Z,7.82
2023-01-09T09:22:22.153Z,7.82
2023-01-09T09:24:52.791Z,8.00
2023-01-09T09:27:26.192Z,8.50
2023-01-09T09:29:56.660Z,7.45
2023-01-09T09:32:27.346Z,8.55
2023-01-09T09:34:57.893Z,9.68
2023-01-09T09:37:28.505Z,8.25
2023-01-09T09:40:01.428Z,9.27
2023-01-09T09:45:47.103Z,8.57
2023-01-09T09:48:32.931Z,8.00
2023-01-09T09:51:26.069Z,8.55
2023-01-09T09:54:02.516Z,9.63
2023-01-09T09:56:37.697Z,8.82
2023-01-09T09:59:18.751Z,8.35
2023-01-09T10:01:56.206Z,8.93
2023-01-09T10:04:29.152Z,8.50
2023-01-09T10:07:06.393Z,12.25
2023-01-09T10:09:48.649Z,10.63
2023-01-09T10:12:31.877Z,9.20
2023-01-09T10:15:10.388Z,8.75
2023-01-09T10:17:55.057Z,9.82
2023-01-09T10:20:47.953Z,9.65
2023-01-09T10:23:42.239Z,10.05
2023-01-09T10:26:19.829Z,9.77
2023-01-09T10:29:26.485Z,9.88
2023-01-09T10:32:08.893Z,10.43
2023-01-09T10:34:52.867Z,10.45
2023-01-09T10:37:26.655Z,9.93
2023-01-09T10:40:02.436Z,10.15
2023-01-09T10:42:38.746Z,9.05
2023-01-09T10:45:20.692Z,12.35
2023-01-09T10:47:53.822Z,20.35
2023-01-09T10:50:26.611Z,12.13
2023-01-09T10:52:59.297Z,13.90
2023-01-09T10:55:40.008Z,9.85
2023-01-09T10:58:15.757Z,11.43
2023-01-09T11:00:46.788Z,13.90
2023-01-09T11:03:22.694Z,9.93
2023-01-09T11:05:55.645Z,11.38
2023-01-09T11:08:31.013Z,10.25
2023-01-09T11:11:03.515Z,10.20
2023-01-09T11:13:36.883Z,9.32
2023-01-09T11:16:10.911Z,10.45
2023-01-09T11:18:52.950Z,9.32
2023-01-09T11:21:36.322Z,9.57
2023-01-09T11:24:32.869Z,9.50
2023-01-09T11:27:27.284Z,11.93
2023-01-09T11:30:20.385Z,16.27
2023-01-09T11:32:51.508Z,27.15
2023-01-09T11:35:33.933Z,9.82
2023-01-09T11:38:12.316Z,15.32
2023-01-09T11:40:51.120Z,9.55
2023-01-09T11:43:25.836Z,10.75
2023-01-09T11:46:01.637Z,11.07
2023-01-09T11:48:44.208Z,9.85
2023-01-09T11:51:25.156Z,10.30
2023-01-09T11:54:11.266Z,9.75
2023-01-09T11:56:42.570Z,9.02
2023-01-09T11:59:15.705Z,9.43
2023-01-09T12:02:08.414Z,8.48
2023-01-09T12:04:44.472Z,9.00
2023-01-09T12:07:38.643Z,9.15
2023-01-09T12:10:26.485Z,9.63
2023-01-09T12:13:06.335Z,9.35
2023-01-09T12:15:45.669Z,9.70
2023-01-09T12:18:35.658Z,10.27
2023-01-09T12:21:21.072Z,8.93
2023-01-09T12:24:06.201Z,9.27
2023-01-09T12:26:42.510Z,10.52
2023-01-09T12:29:27.747Z,8.68
2023-01-09T12:32:20.179Z,10.00
2023-01-09T12:35:00.647Z,9.57
2023-01-09T12:37:51.716Z,9.82
2023-01-09T12:40:41.989Z,10.40
2023-01-09T12:43:22.113Z,9.80
2023-01-09T12:46:07.127Z,10.93
2023-01-09T12:48:49.814Z,10.07
2023-01-09T12:51:40.738Z,9.60
2023-01-09T12:54:19.118Z,9.70
2023-01-09T12:56:57.767Z,10.02
2023-01-09T12:59:36.083Z,12.18
2023-01-09T13:02:19.925Z,10.20
2023-01-09T13:04:55.629Z,11.65
2023-01-09T13:07:29.622Z,9.85
2023-01-09T13:10:05.610Z,11.48
2023-01-09T13:12:42.634Z,9.30
2023-01-09T13:15:32.737Z,10.10
2023-01-09T13:18:08.747Z,10.30
2023-01-09T13:20:45.194Z,9.30
2023-01-09T13:23:23.505Z,10.80
2023-01-09T13:25:57.929Z,10.18
2023-01-09T13:28:37.324Z,10.53
2023-01-09T13:31:31.105Z,10.00
2023-01-09T13:34:04.589Z,10.68
2023-01-09T13:36:41.696Z,9.98
2023-01-09T13:39:23.864Z,9.90
2023-01-09T13:42:12.618Z,9.88
2023-01-09T13:44:46.245Z,10.75
2023-01-09T13:47:25.462Z,9.23
2023-01-09T13:50:24.827Z,10.27
2023-01-09T13:52:55.560Z,11.07
2023-01-09T13:55:31.923Z,11.25
2023-01-09T13:58:22.908Z,11.75
2023-01-09T14:00:58.779Z,12.27
2023-01-09T14:03:33.446Z,12.60
2023-01-09T14:06:19.490Z,12.73
2023-01-09T14:08:52.549Z,12.80
2023-01-09T14:11:29.303Z,11.90
2023-01-09T14:14:07.216Z,12.00
2023-01-09T14:16:41.090Z,12.65
2023-01-09T14:19:29.500Z,10.70
2023-01-09T14:22:01.140Z,11.43
2023-01-09T14:24:35.456Z,13.95
2023-01-09T14:27:05.983Z,13.05
2023-01-09T14:29:51.534Z,13.38
2023-01-09T14:32:45.309Z,11.45
2023-01-09T14:35:30.051Z,11.23
2023-01-09T14:38:26.290Z,12.52
2023-01-09T14:41:01.912Z,11.90
2023-01-09T14:43:43.141Z,12.68
2023-01-09T14:46:17.966Z,11.75
2023-01-09T14:49:18.861Z,13.63
2023-01-09T14:51:52.584Z,12.40
2023-01-09T14:54:30.943Z,13.27
2023-01-09T14:57:02.738Z,15.15
2023-01-09T14:59:33.600Z,14.63
2023-01-09T15:02:04.255Z,12.75
2023-01-09T15:04:41.093Z,16.77
2023-01-09T15:07:26.182Z,13.30
2023-01-09T15:09:56.831Z,13.13
2023-01-09T15:12:27.914Z,14.52
2023-01-09T15:15:01.497Z,12.20
2023-01-09T15:17:39.632Z,12.13
2023-01-09T15:20:22.347Z,11.30
2023-01-09T15:22:54.836Z,12.93
2023-01-09T15:25:38.029Z,12.80
2023-01-09T15:28:27.874Z,14.10
2023-01-09T15:31:09.014Z,13.13
2023-01-09T15:33:43.405Z,14.10
2023-01-09T15:36:20.773Z,16.42
2023-01-09T15:38:52.209Z,16.75
2023-01-09T15:41:40.504Z,17.48
2023-01-09T15:44:17.654Z,16.17
2023-01-09T15:46:50.390Z,17.83
2023-01-09T15:49:22.140Z,15.55
2023-01-09T15:51:56.311Z,15.95
2023-01-09T15:54:31.796Z,16.42
2023-01-09T15:59:47.650Z,15.73
2023-01-09T16:02:31.435Z,17.80
2023-01-09T16:05:02.109Z,18.65
2023-01-09T16:07:36.997Z,18.17
2023-01-09T16:10:08.431Z,17.80
2023-01-09T16:12:39.143Z,17.15
2023-01-09T16:15:18.734Z,14.77
2023-01-09T16:18:10.600Z,14.85
2023-01-09T16:20:41.557Z,15.15
2023-01-09T16:23:25.322Z,17.20
2023-01-09T16:26:06.453Z,15.68
2023-01-09T16:28:40.906Z,15.50
2023-01-09T16:31:24.035Z,16.88
2023-01-09T16:34:01.807Z,16.75
2023-01-09T16:36:32.459Z,15.85
2023-01-09T16:39:08.034Z,16.80
2023-01-09T16:44:20.926Z,15.98
2023-01-09T16:46:51.503Z,18.23
2023-01-09T16:49:24.742Z,17.50
2023-01-09T16:51:55.664Z,18.08
2023-01-09T16:54:29.284Z,17.48
2023-01-09T16:57:00.408Z,13.45
2023-01-09T16:59:31.609Z,13.20
2023-01-09T17:02:02.697Z,10.00
2023-01-09T17:04:33.275Z,11.20
2023-01-09T17:07:05.064Z,12.07
2023-01-09T17:09:39.307Z,11.93
2023-01-09T17:12:15.666Z,11.90
2023-01-09T17:14:46.435Z,11.30
2023-01-09T17:17:20.739Z,10.45
2023-01-09T17:19:52.389Z,15.03
2023-01-09T17:22:23.710Z,12.68
2023-01-09T17:25:10.011Z,13.18
2023-01-09T17:27:53.568Z,11.18
2023-01-09T17:30:24.783Z,11.00
2023-01-09T17:32:56.201Z,11.30
2023-01-09T17:35:27.147Z,11.05
2023-01-09T17:37:58.241Z,12.15
2023-01-09T17:40:35.104Z,12.50
2023-01-09T17:43:05.876Z,13.60
2023-01-09T17:45:36.691Z,14.00
2023-01-09T17:48:08.050Z,15.23
2023-01-09T17:50:39.204Z,15.32
2023-01-09T17:53:10.025Z,17.15
2023-01-09T17:55:44.477Z,15.07
2023-01-09T17:58:29.333Z,16.30
2023-01-09T18:01:01.049Z,16.00
2023-01-09T18:03:34.761Z,14.48
2023-01-09T18:06:06.418Z,13.38
2023-01-09T18:08:37.193Z,11.98
2023-01-09T18:11:12.186Z,12.23
2023-01-09T18:13:44.087Z,13.38
2023-01-09T18:16:16.468Z,14.15
2023-01-09T18:18:48.697Z,12.82
2023-01-09T18:21:22.713Z,12.27
2023-01-09T18:23:53.889Z,12.55
2023-01-09T18:26:27.710Z,12.10
2023-01-09T18:29:02.225Z,13.45
2023-01-09T18:31:33.878Z,12.90
2023-01-09T18:34:07.071Z,12.35
2023-01-09T18:36:38.520Z,11.30
2023-01-09T18:39:10.190Z,12.55
2023-01-09T18:41:43.463Z,11.75
2023-01-09T18:44:14.478Z,12.48
2023-01-09T18:46:47.194Z,14.63
2023-01-09T18:49:19.221Z,14.10
2023-01-09T18:51:50.241Z,14.10
2023-01-09T18:54:22.297Z,11.80
2023-01-09T18:56:55.892Z,12.98
2023-01-09T18:59:26.644Z,12.82
2023-01-09T19:01:58.219Z,12.77
2023-01-09T19:04:30.654Z,12.70
2023-01-09T19:07:01.560Z,12.18
2023-01-09T19:09:32.270Z,13.65
2023-01-09T19:12:05.627Z,13.65
2023-01-09T19:14:36.099Z,13.25
2023-01-09T19:17:06.869Z,13.15
2023-01-09T19:19:37.768Z,12.82
2023-01-09T19:22:08.319Z,12.70
2023-01-09T19:24:39.460Z,13.77
2023-01-09T19:27:12.740Z,17.27
2023-01-09T19:29:43.392Z,15.00
2023-01-09T19:32:14.647Z,14.57
2023-01-09T19:34:45.294Z,14.23
2023-01-09T19:37:16.291Z,14.32
2023-01-09T19:39:48.111Z,14.32
2023-01-09T19:42:21.653Z,14.48
2023-01-09T19:44:53.441Z,14.90
2023-01-09T19:47:24.243Z,18.42
2023-01-09T19:49:55.648Z,13.80
2023-01-09T19:52:27.594Z,13.15
2023-01-09T19:54:58.470Z,12.15
2023-01-09T19:57:34.628Z,12.68
2023-01-09T20:00:05.717Z,11.80
2023-01-09T20:02:44.057Z,13.20
2023-01-09T20:05:16.208Z,13.98
2023-01-09T20:07:48.464Z,11.60
2023-01-09T20:10:21.128Z,12.32
2023-01-09T20:12:55.101Z,13.43
2023-01-09T20:15:25.617Z,12.13
2023-01-09T20:17:57.365Z,12.32
2023-01-09T20:20:29.599Z,11.13
2023-01-09T20:23:01.485Z,11.85
2023-01-09T20:25:32.422Z,10.13
2023-01-09T20:28:05.860Z,9.40
2023-01-09T20:30:37.874Z,8.68
2023-01-09T20:33:08.993Z,8.73
2023-01-09T20:35:40.122Z,9.85
2023-01-09T20:38:11.363Z,9.60
2023-01-09T20:40:44.186Z,10.75
2023-01-09T20:43:17.478Z,10.23
2023-01-09T20:45:48.051Z,10.48
2023-01-09T20:48:19.318Z,10.80
2023-01-09T20:50:49.878Z,10.20
2023-01-09T20:53:20.715Z,10.32
2023-01-09T20:55:51.269Z,11.63
2023-01-09T20:58:24.648Z,10.88
2023-01-09T21:00:55.220Z,10.98
2023-01-09T21:03:26.272Z,11.15
2023-01-09T21:05:57.729Z,10.88
2023-01-09T21:08:29.174Z,10.30
2023-01-09T21:11:00.357Z,10.27
2023-01-09T21:13:34.502Z,9.70
2023-01-09T21:16:07.688Z,10.27
2023-01-09T21:18:39.797Z,10.88
2023-01-09T21:21:14.176Z,9.98
2023-01-09T21:23:48.604Z,9.15
2023-01-09T21:26:22.473Z,11.27
2023-01-09T21:28:57.051Z,9.65
2023-01-09T21:31:33.671Z,8.60
2023-01-09T21:34:06.706Z,9.25
2023-01-09T21:36:38.368Z,8.88
2023-01-09T21:39:09.105Z,9.48
2023-01-09T21:42:06.867Z,9.60
2023-01-09T21:44:52.270Z,11.30
2023-01-09T21:47:23.135Z,9.88
2023-01-09T21:49:53.769Z,9.23
2023-01-09T21:52:25.813Z,8.60
2023-01-09T21:54:58.001Z,8.77
2023-01-09T21:57:28.586Z,12.02
2023-01-09T22:00:01.926Z,8.30
2023-01-09T22:02:42.243Z,8.02
2023-01-09T22:05:13.022Z,7.53
2023-01-09T22:07:43.737Z,8.10
2023-01-09T22:10:15.478Z,7.32
2023-01-09T22:13:06.605Z,7.20
2023-01-09T22:15:41.484Z,6.45
2023-01-09T22:18:12.003Z,7.15
2023-01-09T22:20:42.737Z,7.07
2023-01-09T22:23:13.253Z,6.25
2023-01-09T22:25:44.760Z,5.95
2023-01-09T22:28:15.357Z,6.18
2023-01-09T22:30:48.647Z,6.50
2023-01-09T22:33:19.293Z,6.50
2023-01-09T22:35:53.890Z,6.85
2023-01-09T22:38:24.356Z,6.35
2023-01-09T22:40:54.850Z,6.53
2023-01-09T22:43:25.767Z,6.72
2023-01-09T22:46:02.046Z,8.02
2023-01-09T22:48:34.748Z,6.45
2023-01-09T22:51:06.422Z,6.05
2023-01-09T22:53:37.641Z,6.20
2023-01-09T22:56:11.229Z,5.68
2023-01-09T22:58:42.271Z,5.57
2023-01-09T23:01:16.329Z,6.10
2023-01-09T23:03:46.933Z,5.85
2023-01-09T23:06:19.728Z,6.40
2023-01-09T23:08:51.229Z,6.25
2023-01-09T23:11:44.284Z,6.25
2023-01-09T23:14:15.891Z,7.07
2023-01-09T23:16:49.232Z,6.30
2023-01-09T23:19:20.054Z,8.15
2023-01-09T23:21:50.797Z,8.20
2023-01-09T23:24:22.833Z,7.13
2023-01-09T23:26:53.294Z,8.57
2023-01-09T23:29:24.218Z,9.07
2023-01-09T23:31:58.644Z,8.85
2023-01-09T23:34:29.235Z,9.32
2023-01-09T23:36:59.729Z,7.28
2023-01-09T23:39:30.380Z,8.50
2023-01-09T23:42:13.130Z,9.13
2023-01-09T23:44:43.540Z,8.32
2023-01-09T23:47:16.671Z,8.65
2023-01-09T23:49:48.132Z,9.15
2023-01-09T23:52:18.752Z,9.02
2023-01-09T23:54:49.405Z,8.38
2023-01-09T23:57:19.870Z,8.35
2023-01-09T23:59:50.440Z,9.77
